Extreme high temperature From: 14-08-2020 13:00 Until: 17-08-2020 21:20 warning for: Extreme high temperature Level: Orange info button
dansk:
Kategori 2 varsel: DMI forventer 28 grader eller mere i de kommende 1 dage.

Hedebølge kan være farlige for små- og spædbørn, ældre samt personer, der lider at kroniske sygdomme. Drik rigeligt, og hold kroppen afkølet.

english:
Category 2: DMI expects heatwave with temperatures higher than 28 degs in 1 days.

Heat waves can be dangerous, especially to infants and young children, elderly and people with chronic diseases. 


Webcam  Webcam


Lyn radar more information blitzortung!


Regn radar more information rain snow radar



Lokal METAR Rapport

   
EHVK - Volkel Rnlafb, Netherlands
Afstand fra station: SV 18 km
Opdateret: 15-08-2020 12:55
Diset, mest skyet  
Diset, mest skyet  
   Vind: NV 2.1 m/s
Vind: NV 2.1 m/s
Temperatur: 25°C
Dugpunkt: 18°C
Luftfugtighed: 65%
Barometer: 1015 hPa
Skyet: mest skyet
Sigtbarhed: 9 km
Sky detaljer: Delvis skyet 2500 ft,
mest skyet 2800 ft,
mest skyet 3200 ft
EHVK 151055Z AUTO 32004KT 250V330 9000 HZ SCT025 BKN028 BKN032 25/18 Q1015 BLU
EDLV - Niederrhein, Germany
Afstand fra station: SØ 25 km
Opdateret: 15-08-2020 12:50
Delvis skyet  
Delvis skyet  
   Vind: varierer 2.1 m/s
Vind: varierer 2.1 m/s
Temperatur: 27°C
Hede Indeks: 28°C
Dugpunkt: 18°C
Luftfugtighed: 58%
Barometer: 1015 hPa
Skyet: Delvis skyet
Sigtbarhed: mere end 10 km
Sky detaljer: Delvis skyet 4700 ft
EDLV 151050Z VRB04KT 9999 SCT047 27/18 Q1015
EHDL - Deelen Rnlafb, Netherlands
Afstand fra station: N 35 km
Opdateret: 15-08-2020 12:55
Overskyet  
Overskyet  
   Vind: varierer 1 m/s
Vind: varierer 1 m/s
Temperatur: 27°C
Hede Indeks: 28°C
Dugpunkt: 18°C
Luftfugtighed: 58%
Barometer: 1015 hPa
Skyet: Overskyet
Sigtbarhed: mere end 10 km
Sky detaljer: Delvis skyet 3900 ft,
Overskyet 12000 ft
EHDL 151055Z AUTO VRB02KT 9999 SCT039 OVC120 27/18 Q1015 BLU
EHEH - Eindhoven Rnlafb, Netherlands
Afstand fra station: SV 48 km
Opdateret: 15-08-2020 12:55
mest skyet  
mest skyet  
   Vind: ØSØ 1.5 m/s
Vind: ØSØ 1.5 m/s
Temperatur: 26°C
Dugpunkt: 17°C
Luftfugtighed: 58%
Barometer: 1015 hPa
Skyet: mest skyet
Sigtbarhed: mere end 10 km
Sky detaljer: mest skyet 2800 ft
EHEH 151055Z AUTO 11003KT 230V040 9999 BKN028 26/17 Q1015 BLU NOSIG
EHGR - Gilze-Rijen Rnla, Netherlands
Afstand fra station: VSV 70 km
Opdateret: 15-08-2020 12:55
Delvis skyet  
Delvis skyet  
   Vind: varierer 1.5 m/s
Vind: varierer 1.5 m/s
Temperatur: 26°C
Dugpunkt: 17°C
Luftfugtighed: 58%
Barometer: 1015 hPa
Skyet: Delvis skyet
Sigtbarhed: mere end 10 km
Sky detaljer: Delvis skyet 13000 ft
EHGR 151055Z AUTO VRB03KT 9999 SCT130 26/17 Q1015 BLU
EBBL - Kleine-Brogel(Ba, Belgium
Afstand fra station: SSV 71 km
Opdateret: 15-08-2020 12:55
mest skyet  
mest skyet  
   Vind: varierer 0.5 m/s
Vind: varierer 0.5 m/s
Temperatur: 25°C
Dugpunkt: 18°C
Luftfugtighed: 65%
Barometer: 1015 hPa
Skyet: mest skyet
Sigtbarhed: mere end 10 km
Sky detaljer: Delvis skyet 2600 ft,
mest skyet 13000 ft
EBBL 151055Z AUTO VRB01KT 9999 SCT026/// BKN130/// 25/18 Q1015 BLU

Script udviklet af  Saratoga-weather.org Tilpasset til denne template af  Weerstation Leuven

Du finder også vores vejrinformationer på:

UK Metoffice

European Weather Network

WeatherCloud

Weather Underground

AWEKAS

Citizen Weather Observer Program (CWOP)

HAMweather, WeatherForYou, PWS Weather

Udstyr som vi anvender:

Vejrstation
Davis VP2

Vejrprogram
Meteobridge

Vejrserver
Meteobridge Pro

Davis VP2

Meteobridge

Meteobridge Pro